Saturday, January 20, 2018, 8:24 AM EST
Back to Local

KMUI, Muir Army Air Field / Indiantown

Location: Jonestown, PA, United States Lat: 40.433
Local Time: 8:24 AM EST (13:24 GMT) Lon: -76.567
Time Zone: US/Eastern Elev: 488 ft

Show me the last for .
Show Coded

Time T Td Feel RH Dir Speed Gust Alt SLP Vis Weather Sky Remarks
2018-01-20 07:56 26 25 - 97 - Calm - 29.93 29.96 10 CLR None
2018-01-20 06:56 22 21 - 97 - Calm - 29.92 29.95 10 CLR 6-hr Min Temp (7am): 18.1°F
6-hr Max Temp (7am): 29.8°F
2018-01-20 05:56 21 19 - 91 - Calm - 29.91 29.94 10 CLR None
2018-01-20 04:56 30 24 25 77 240° 5 - 29.91 29.93 10 CLR None
2018-01-20 03:56 25 25 19 99 240° 5 - 29.93 29.95 10 CLR None
2018-01-20 01:56 20 20 - 100 - Calm - 29.94 29.96 10 CLR None
2018-01-20 00:56 22 22 - 100 - Calm - 29.94 29.96 10 CLR 6-hr Min Temp (1am): 18.9°F
6-hr Max Temp (1am): 31.5°F
2018-01-19 23:56 21 21 - 100 - Calm - 29.96 29.98 10 CLR 24-hr Min Temp (12am): 8.6°F
24-hr Max Temp (12am): 41.2°F
2018-01-19 22:56 22 22 17 100 40° 3 - 29.98 30.01 10 CLR None
2018-01-19 21:56 22 22 - 99 - Calm - 29.99 30.02 10 CLR None
2018-01-19 20:56 27 23 - 86 - Calm - 29.99 30.02 10 CLR None
2018-01-19 19:56 25 23 - 89 - Calm - 29.99 30.02 10 CLR None
2018-01-19 18:56 31 23 - 72 - Calm - 29.99 30.02 10 CLR Snow depth: 2"
6-hr Min Temp (7pm): 29.3°F
6-hr Max Temp (7pm): 41.2°F
2018-01-19 17:56 32 22 - 65 - Calm - 29.99 30.02 10 CLR None
2018-01-19 16:56 39 22 36 48 270° 5 - 29.98 30.01 10 CLR None
2018-01-19 15:56 41 20 39 41 210° 3 - 29.98 30.01 10 SCT200 None
2018-01-19 15:21 41 21 36 44 Variable 7 - 29.98 30.01 10 SCT200 None
2018-01-19 14:56 40 19 35 42 230° 7 - 29.98 30.01 10 CLR None
2018-01-19 13:56 39 19 33 42 190° 9 - 29.99 30.02 10 FEW190 None
2018-01-19 12:56 37 17 29 44 220° 12 - 30.01 30.04 10 FEW200 Snow depth: 2"
6-hr Min Temp (1pm): 11.1°F
6-hr Max Temp (1pm): 37.6°F
2018-01-19 11:56 36 17 29 45 240° 9 - 30.05 30.08 10 CLR None
2018-01-19 10:56 30 17 26 59 170° 3 - 30.07 30.10 10 FEW200 None
2018-01-19 09:56 22 18 - 81 - Calm - 30.09 30.12 10 SCT200 None
2018-01-19 08:56 15 15 - 98 - Calm - 30.08 30.11 10 SCT220 None

Support USWX by starting your Amazon purchase here.